sensor_id;sensor_type;location;lat;lon;timestamp;pressure;altitude;pressure_sealevel;temperature;humidity
12247;BME280;6186;52.022;4.692;2023-04-07T00:00:34;101563.72;;;9.76;94.04
12247;BME280;6186;52.022;4.692;2023-04-07T00:02:59;101565.47;;;9.76;94.28
12247;BME280;6186;52.022;4.692;2023-04-07T00:05:25;101564.59;;;9.75;94.18
12247;BME280;6186;52.022;4.692;2023-04-07T00:07:50;101562.84;;;9.76;94.24
12247;BME280;6186;52.022;4.692;2023-04-07T00:10:15;101563.69;;;9.75;94.33
12247;BME280;6186;52.022;4.692;2023-04-07T00:12:40;101569.88;;;9.74;94.26
12247;BME280;6186;52.022;4.692;2023-04-07T00:15:06;101576.03;;;9.73;94.38
12247;BME280;6186;52.022;4.692;2023-04-07T00:17:31;101576.88;;;9.72;94.44
12247;BME280;6186;52.022;4.692;2023-04-07T00:19:56;101581.28;;;9.70;94.27
12247;BME280;6186;52.022;4.692;2023-04-07T00:22:22;101583.91;;;9.73;94.65
12247;BME280;6186;52.022;4.692;2023-04-07T00:24:47;101579.53;;;9.70;94.67
12247;BME280;6186;52.022;4.692;2023-04-07T00:27:12;101590.00;;;9.75;94.80
12247;BME280;6186;52.022;4.692;2023-04-07T00:29:38;101589.13;;;9.76;94.82
12247;BME280;6186;52.022;4.692;2023-04-07T00:32:03;101592.63;;;9.76;95.10
12247;BME280;6186;52.022;4.692;2023-04-07T00:34:28;101589.16;;;9.74;94.76
12247;BME280;6186;52.022;4.692;2023-04-07T00:36:53;101583.91;;;9.70;94.94
12247;BME280;6186;52.022;4.692;2023-04-07T00:39:19;101593.50;;;9.75;95.26
12247;BME280;6186;52.022;4.692;2023-04-07T00:41:45;101586.53;;;9.73;95.55
12247;BME280;6186;52.022;4.692;2023-04-07T00:44:11;101583.91;;;9.73;95.24
12247;BME280;6186;52.022;4.692;2023-04-07T00:46:36;101584.75;;;9.73;95.39
12247;BME280;6186;52.022;4.692;2023-04-07T00:49:02;101582.16;;;9.72;95.19
12247;BME280;6186;52.022;4.692;2023-04-07T00:51:27;101590.03;;;9.72;95.60
12247;BME280;6186;52.022;4.692;2023-04-07T00:53:53;101584.78;;;9.72;95.45
12247;BME280;6186;52.022;4.692;2023-04-07T00:56:19;101585.66;;;9.72;95.77
12247;BME280;6186;52.022;4.692;2023-04-07T00:58:44;101590.00;;;9.73;95.50
12247;BME280;6186;52.022;4.692;2023-04-07T01:01:15;101586.53;;;9.70;95.53
12247;BME280;6186;52.022;4.692;2023-04-07T01:04:00;101575.22;;;9.62;95.44
12247;BME280;6186;52.022;4.692;2023-04-07T01:06:30;101589.25;;;9.65;95.47
12247;BME280;6186;52.022;4.692;2023-04-07T01:09:03;101577.88;;;9.60;95.02
12247;BME280;6186;52.022;4.692;2023-04-07T01:11:31;101581.41;;;9.56;95.13
12247;BME280;6186;52.022;4.692;2023-04-07T01:13:59;101576.22;;;9.48;94.71
12247;BME280;6186;52.022;4.692;2023-04-07T01:16:48;101584.16;;;9.44;94.86
12247;BME280;6186;52.022;4.692;2023-04-07T01:19:33;101577.19;;;9.40;94.86
12247;BME280;6186;52.022;4.692;2023-04-07T01:22:02;101584.25;;;9.36;94.75
12247;BME280;6186;52.022;4.692;2023-04-07T01:30:11;101593.94;;;9.25;94.72
12247;BME280;6186;52.022;4.692;2023-04-07T01:32:38;101594.84;;;9.24;94.79
12247;BME280;6186;52.022;4.692;2023-04-07T01:35:06;101591.38;;;9.19;95.06
12247;BME280;6186;52.022;4.692;2023-04-07T01:37:35;101601.81;;;9.25;95.39
12247;BME280;6186;52.022;4.692;2023-04-07T01:40:03;101601.81;;;9.25;95.34
12247;BME280;6186;52.022;4.692;2023-04-07T01:42:30;101599.19;;;9.28;95.66
12247;BME280;6186;52.022;4.692;2023-04-07T01:44:57;101601.81;;;9.28;95.67
12247;BME280;6186;52.022;4.692;2023-04-07T01:47:23;101592.19;;;9.24;95.83
12247;BME280;6186;52.022;4.692;2023-04-07T01:49:50;101610.53;;;9.32;95.94
12247;BME280;6186;52.022;4.692;2023-04-07T01:52:17;101597.41;;;9.27;96.06
12247;BME280;6186;52.022;4.692;2023-04-07T01:54:42;101608.78;;;9.32;96.13
12247;BME280;6186;52.022;4.692;2023-04-07T01:57:08;101607.03;;;9.31;96.32
12247;BME280;6186;52.022;4.692;2023-04-07T01:59:33;101599.13;;;9.31;96.38
12247;BME280;6186;52.022;4.692;2023-04-07T02:01:59;101601.78;;;9.31;96.49
12247;BME280;6186;52.022;4.692;2023-04-07T02:04:34;101600.00;;;9.33;96.54
12247;BME280;6186;52.022;4.692;2023-04-07T02:07:08;101599.16;;;9.33;96.63
12247;BME280;6186;52.022;4.692;2023-04-07T02:09:37;101601.78;;;9.33;96.86
12247;BME280;6186;52.022;4.692;2023-04-07T02:12:07;101599.16;;;9.30;96.79
12247;BME280;6186;52.022;4.692;2023-04-07T02:14:34;101607.03;;;9.33;96.90
12247;BME280;6186;52.022;4.692;2023-04-07T02:17:01;101605.25;;;9.33;97.13
12247;BME280;6186;52.022;4.692;2023-04-07T02:19:28;101604.41;;;9.34;97.23
12247;BME280;6186;52.022;4.692;2023-04-07T02:21:53;101603.50;;;9.35;97.29
12247;BME280;6186;52.022;4.692;2023-04-07T02:24:19;101589.53;;;9.30;97.30
12247;BME280;6186;52.022;4.692;2023-04-07T02:26:45;101595.63;;;9.34;97.27
12247;BME280;6186;52.022;4.692;2023-04-07T02:29:10;101601.75;;;9.34;97.32
12247;BME280;6186;52.022;4.692;2023-04-07T02:31:35;101600.91;;;9.32;97.30
12247;BME280;6186;52.022;4.692;2023-04-07T02:34:00;101603.53;;;9.32;97.43
12247;BME280;6186;52.022;4.692;2023-04-07T02:36:25;101600.03;;;9.32;97.46
12247;BME280;6186;52.022;4.692;2023-04-07T02:38:51;101606.19;;;9.31;97.77
12247;BME280;6186;52.022;4.692;2023-04-07T02:41:16;101600.03;;;9.30;97.78
12247;BME280;6186;52.022;4.692;2023-04-07T02:43:41;101605.31;;;9.27;97.54
12247;BME280;6186;52.022;4.692;2023-04-07T02:46:06;101606.19;;;9.26;97.49
12247;BME280;6186;52.022;4.692;2023-04-07T02:48:32;101610.59;;;9.24;97.58
12247;BME280;6186;52.022;4.692;2023-04-07T02:50:57;101600.97;;;9.23;97.70
12247;BME280;6186;52.022;4.692;2023-04-07T02:53:23;101610.63;;;9.23;97.64
12247;BME280;6186;52.022;4.692;2023-04-07T02:55:48;101611.50;;;9.23;97.99
12247;BME280;6186;52.022;4.692;2023-04-07T02:58:13;101601.84;;;9.24;98.03
12247;BME280;6186;52.022;4.692;2023-04-07T03:00:38;101602.72;;;9.23;98.13
12247;BME280;6186;52.022;4.692;2023-04-07T03:03:03;101603.59;;;9.23;98.42
12247;BME280;6186;52.022;4.692;2023-04-07T03:05:29;101614.97;;;9.24;98.63
12247;BME280;6186;52.022;4.692;2023-04-07T03:07:54;101606.19;;;9.26;98.80
12247;BME280;6186;52.022;4.692;2023-04-07T03:10:19;101607.06;;;9.28;98.97
12247;BME280;6186;52.022;4.692;2023-04-07T03:12:44;101612.28;;;9.31;98.96
12247;BME280;6186;52.022;4.692;2023-04-07T03:15:10;101612.28;;;9.31;98.96
12247;BME280;6186;52.022;4.692;2023-04-07T03:17:35;101611.41;;;9.32;99.09
12247;BME280;6186;52.022;4.692;2023-04-07T03:20:00;101617.53;;;9.34;99.25
12247;BME280;6186;52.022;4.692;2023-04-07T03:22:25;101616.63;;;9.35;99.54
12247;BME280;6186;52.022;4.692;2023-04-07T03:24:51;101620.13;;;9.36;99.43
12247;BME280;6186;52.022;4.692;2023-04-07T03:27:16;101614.88;;;9.36;99.38
12247;BME280;6186;52.022;4.692;2023-04-07T03:29:41;101610.53;;;9.32;99.54
12247;BME280;6186;52.022;4.692;2023-04-07T03:32:06;101613.13;;;9.38;99.56
12247;BME280;6186;52.022;4.692;2023-04-07T03:34:32;101606.97;;;9.37;99.82
12247;BME280;6186;52.022;4.692;2023-04-07T03:36:57;101607.88;;;9.38;99.72
12247;BME280;6186;52.022;4.692;2023-04-07T03:39:22;101610.50;;;9.38;99.92
12247;BME280;6186;52.022;4.692;2023-04-07T03:41:47;101606.13;;;9.38;100.00
12247;BME280;6186;52.022;4.692;2023-04-07T03:44:13;101612.22;;;9.40;100.00
12247;BME280;6186;52.022;4.692;2023-04-07T03:46:38;101597.34;;;9.38;100.00
12247;BME280;6186;52.022;4.692;2023-04-07T03:49:03;101606.03;;;9.44;100.00
12247;BME280;6186;52.022;4.692;2023-04-07T03:51:28;101602.53;;;9.45;100.00
12247;BME280;6186;52.022;4.692;2023-04-07T03:53:54;101613.03;;;9.47;100.00
12247;BME280;6186;52.022;4.692;2023-04-07T03:56:19;101613.91;;;9.47;100.00
12247;BME280;6186;52.022;4.692;2023-04-07T03:58:44;101616.53;;;9.47;100.00
12247;BME280;6186;52.022;4.692;2023-04-07T04:01:09;101618.28;;;9.48;100.00
12247;BME280;6186;52.022;4.692;2023-04-07T04:03:35;101622.66;;;9.49;100.00
12247;BME280;6186;52.022;4.692;2023-04-07T04:06:00;101617.41;;;9.46;100.00
12247;BME280;6186;52.022;4.692;2023-04-07T04:08:25;101620.91;;;9.52;100.00
12247;BME280;6186;52.022;4.692;2023-04-07T04:10:51;101620.91;;;9.52;100.00
12247;BME280;6186;52.022;4.692;2023-04-07T04:13:16;101620.00;;;9.52;100.00
12247;BME280;6186;52.022;4.692;2023-04-07T04:15:41;101624.38;;;9.52;100.00
12247;BME280;6186;52.022;4.692;2023-04-07T04:18:07;101630.50;;;9.52;100.00
12247;BME280;6186;52.022;4.692;2023-04-07T04:20:32;101633.13;;;9.52;100.00
12247;BME280;6186;52.022;4.692;2023-04-07T04:22:57;101634.88;;;9.52;100.00
12247;BME280;6186;52.022;4.692;2023-04-07T04:25:22;101634.03;;;9.52;100.00
12247;BME280;6186;52.022;4.692;2023-04-07T04:27:48;101635.78;;;9.51;100.00
12247;BME280;6186;52.022;4.692;2023-04-07T04:30:13;101641.91;;;9.52;100.00
12247;BME280;6186;52.022;4.692;2023-04-07T04:32:38;101639.28;;;9.50;100.00
12247;BME280;6186;52.022;4.692;2023-04-07T04:35:04;101634.94;;;9.47;100.00
12247;BME280;6186;52.022;4.692;2023-04-07T04:37:29;101643.72;;;9.45;100.00
12247;BME280;6186;52.022;4.692;2023-04-07T04:39:54;101637.59;;;9.46;100.00
12247;BME280;6186;52.022;4.692;2023-04-07T04:42:20;101638.44;;;9.46;100.00
12247;BME280;6186;52.022;4.692;2023-04-07T04:44:45;101642.81;;;9.44;100.00
12247;BME280;6186;52.022;4.692;2023-04-07T04:47:10;101640.22;;;9.43;100.00
12247;BME280;6186;52.022;4.692;2023-04-07T04:49:35;101643.75;;;9.42;100.00
12247;BME280;6186;52.022;4.692;2023-04-07T04:52:00;101649.84;;;9.42;100.00
12247;BME280;6186;52.022;4.692;2023-04-07T04:54:26;101652.50;;;9.44;100.00
12247;BME280;6186;52.022;4.692;2023-04-07T04:56:51;101652.50;;;9.44;100.00
12247;BME280;6186;52.022;4.692;2023-04-07T04:59:16;101643.75;;;9.40;100.00
12247;BME280;6186;52.022;4.692;2023-04-07T05:01:41;101648.13;;;9.41;100.00
12247;BME280;6186;52.022;4.692;2023-04-07T05:04:07;101653.34;;;9.44;100.00
12247;BME280;6186;52.022;4.692;2023-04-07T05:06:32;101658.59;;;9.46;100.00
12247;BME280;6186;52.022;4.692;2023-04-07T05:08:57;101662.09;;;9.46;100.00
12247;BME280;6186;52.022;4.692;2023-04-07T05:11:22;101668.25;;;9.45;100.00
12247;BME280;6186;52.022;4.692;2023-04-07T05:13:47;101669.97;;;9.46;100.00
12247;BME280;6186;52.022;4.692;2023-04-07T05:16:13;101663.84;;;9.47;100.00
12247;BME280;6186;52.022;4.692;2023-04-07T05:18:38;101664.72;;;9.48;100.00
12247;BME280;6186;52.022;4.692;2023-04-07T05:21:03;101657.69;;;9.50;100.00
12247;BME280;6186;52.022;4.692;2023-04-07T05:23:28;101656.81;;;9.46;100.00
12247;BME280;6186;52.022;4.692;2023-04-07T05:25:54;101657.75;;;9.44;100.00
12247;BME280;6186;52.022;4.692;2023-04-07T05:28:19;101672.56;;;9.52;100.00
12247;BME280;6186;52.022;4.692;2023-04-07T05:30:44;101674.31;;;9.54;100.00
12247;BME280;6186;52.022;4.692;2023-04-07T05:33:10;101680.41;;;9.54;100.00
12247;BME280;6186;52.022;4.692;2023-04-07T05:35:35;101676.06;;;9.53;100.00
12247;BME280;6186;52.022;4.692;2023-04-07T05:38:00;101680.47;;;9.51;100.00
12247;BME280;6186;52.022;4.692;2023-04-07T05:40:27;101680.47;;;9.51;100.00
12247;BME280;6186;52.022;4.692;2023-04-07T05:42:52;101685.72;;;9.49;100.00
12247;BME280;6186;52.022;4.692;2023-04-07T05:45:17;101684.84;;;9.49;100.00
12247;BME280;6186;52.022;4.692;2023-04-07T05:47:43;101680.50;;;9.48;100.00
12247;BME280;6186;52.022;4.692;2023-04-07T05:50:08;101677.00;;;9.44;100.00
12247;BME280;6186;52.022;4.692;2023-04-07T05:52:33;101691.00;;;9.49;100.00
12247;BME280;6186;52.022;4.692;2023-04-07T05:54:59;101693.56;;;9.54;100.00
12247;BME280;6186;52.022;4.692;2023-04-07T05:57:24;101701.47;;;9.56;100.00
12247;BME280;6186;52.022;4.692;2023-04-07T05:59:49;101697.91;;;9.58;100.00
12247;BME280;6186;52.022;4.692;2023-04-07T06:02:15;101696.16;;;9.59;100.00
12247;BME280;6186;52.022;4.692;2023-04-07T06:04:40;101693.59;;;9.56;100.00
12247;BME280;6186;52.022;4.692;2023-04-07T06:07:06;101703.16;;;9.61;100.00
12247;BME280;6186;52.022;4.692;2023-04-07T06:09:31;101704.03;;;9.63;100.00
12247;BME280;6186;52.022;4.692;2023-04-07T06:11:56;101706.66;;;9.65;100.00
12247;BME280;6186;52.022;4.692;2023-04-07T06:14:22;101711.88;;;9.68;100.00
12247;BME280;6186;52.022;4.692;2023-04-07T06:16:47;101711.84;;;9.69;100.00
12247;BME280;6186;52.022;4.692;2023-04-07T06:19:12;101709.25;;;9.68;100.00
12247;BME280;6186;52.022;4.692;2023-04-07T06:21:38;101707.47;;;9.70;100.00
12247;BME280;6186;52.022;4.692;2023-04-07T06:24:03;101706.59;;;9.68;100.00
12247;BME280;6186;52.022;4.692;2023-04-07T06:26:28;101703.13;;;9.69;100.00
12247;BME280;6186;52.022;4.692;2023-04-07T06:28:54;101710.97;;;9.72;100.00
12247;BME280;6186;52.022;4.692;2023-04-07T06:31:19;101706.56;;;9.75;100.00
12247;BME280;6186;52.022;4.692;2023-04-07T06:33:44;101718.78;;;9.81;100.00
12247;BME280;6186;52.022;4.692;2023-04-07T06:36:10;101707.38;;;9.83;100.00
12247;BME280;6186;52.022;4.692;2023-04-07T06:38:36;101709.97;;;9.86;100.00
12247;BME280;6186;52.022;4.692;2023-04-07T06:41:01;101709.97;;;9.85;100.00
12247;BME280;6186;52.022;4.692;2023-04-07T06:43:26;101712.56;;;9.91;100.00
12247;BME280;6186;52.022;4.692;2023-04-07T06:45:52;101716.91;;;9.92;100.00
12247;BME280;6186;52.022;4.692;2023-04-07T06:48:17;101723.91;;;9.96;100.00
12247;BME280;6186;52.022;4.692;2023-04-07T06:50:47;101708.16;;;9.93;100.00
12247;BME280;6186;52.022;4.692;2023-04-07T06:53:13;101723.84;;;10.05;100.00
12247;BME280;6186;52.022;4.692;2023-04-07T06:55:38;101732.59;;;10.10;100.00
12247;BME280;6186;52.022;4.692;2023-04-07T06:58:03;101731.72;;;10.12;100.00
12247;BME280;6186;52.022;4.692;2023-04-07T07:00:29;101735.22;;;10.11;100.00
12247;BME280;6186;52.022;4.692;2023-04-07T07:02:54;101729.91;;;10.13;100.00
12247;BME280;6186;52.022;4.692;2023-04-07T07:05:19;101742.22;;;10.12;100.00
12247;BME280;6186;52.022;4.692;2023-04-07T07:07:44;101755.38;;;10.12;100.00
12247;BME280;6186;52.022;4.692;2023-04-07T07:10:10;101751.00;;;10.11;100.00
12247;BME280;6186;52.022;4.692;2023-04-07T07:12:35;101755.38;;;10.14;100.00
12247;BME280;6186;52.022;4.692;2023-04-07T07:15:01;101745.72;;;10.13;100.00
12247;BME280;6186;52.022;4.692;2023-04-07T07:17:26;101755.38;;;10.11;100.00
12247;BME280;6186;52.022;4.692;2023-04-07T07:19:51;101758.03;;;10.09;100.00
12247;BME280;6186;52.022;4.692;2023-04-07T07:22:16;101762.41;;;10.04;100.00
12247;BME280;6186;52.022;4.692;2023-04-07T07:24:42;101765.06;;;10.01;100.00
12247;BME280;6186;52.022;4.692;2023-04-07T07:27:07;101769.47;;;10.01;100.00
12247;BME280;6186;52.022;4.692;2023-04-07T07:29:32;101772.97;;;10.00;100.00
12247;BME280;6186;52.022;4.692;2023-04-07T07:31:57;101775.56;;;10.01;100.00
12247;BME280;6186;52.022;4.692;2023-04-07T07:34:22;101777.34;;;10.02;100.00
12247;BME280;6186;52.022;4.692;2023-04-07T07:36:48;101785.22;;;10.04;100.00
12247;BME280;6186;52.022;4.692;2023-04-07T07:39:13;101772.03;;;10.05;100.00
12247;BME280;6186;52.022;4.692;2023-04-07T07:41:38;101778.19;;;10.06;100.00
12247;BME280;6186;52.022;4.692;2023-04-07T07:44:04;101790.47;;;10.10;100.00
12247;BME280;6186;52.022;4.692;2023-04-07T07:46:29;101785.22;;;10.10;100.00
12247;BME280;6186;52.022;4.692;2023-04-07T07:48:54;101794.81;;;10.11;100.00
12247;BME280;6186;52.022;4.692;2023-04-07T07:51:19;101788.69;;;10.13;100.00
12247;BME280;6186;52.022;4.692;2023-04-07T07:53:44;101792.16;;;10.15;100.00
12247;BME280;6186;52.022;4.692;2023-04-07T07:56:10;101796.53;;;10.18;100.00
12247;BME280;6186;52.022;4.692;2023-04-07T07:58:35;101781.66;;;10.14;100.00
12247;BME280;6186;52.022;4.692;2023-04-07T08:01:01;101799.19;;;10.18;100.00
12247;BME280;6186;52.022;4.692;2023-04-07T08:03:26;101802.66;;;10.20;100.00
12247;BME280;6186;52.022;4.692;2023-04-07T08:05:51;101797.41;;;10.17;100.00
12247;BME280;6186;52.022;4.692;2023-04-07T08:08:17;101793.91;;;10.18;100.00
12247;BME280;6186;52.022;4.692;2023-04-07T08:10:42;101795.56;;;10.28;100.00
12247;BME280;6186;52.022;4.692;2023-04-07T08:13:07;101797.31;;;10.26;100.00
12247;BME280;6186;52.022;4.692;2023-04-07T08:15:32;101795.56;;;10.31;100.00
12247;BME280;6186;52.022;4.692;2023-04-07T08:17:58;101811.34;;;10.31;100.00
12247;BME280;6186;52.022;4.692;2023-04-07T08:20:24;101805.22;;;10.29;100.00
12247;BME280;6186;52.022;4.692;2023-04-07T08:22:49;101811.34;;;10.31;100.00
12247;BME280;6186;52.022;4.692;2023-04-07T08:25:14;101807.81;;;10.32;100.00
12247;BME280;6186;52.022;4.692;2023-04-07T08:27:39;101818.31;;;10.35;100.00
12247;BME280;6186;52.022;4.692;2023-04-07T08:30:05;101820.06;;;10.34;100.00
12247;BME280;6186;52.022;4.692;2023-04-07T08:32:37;101821.81;;;10.34;100.00
12247;BME280;6186;52.022;4.692;2023-04-07T08:35:03;101818.31;;;10.35;100.00
12247;BME280;6186;52.022;4.692;2023-04-07T08:37:30;101823.56;;;10.36;100.00
12247;BME280;6186;52.022;4.692;2023-04-07T08:39:55;101818.34;;;10.32;100.00
12247;BME280;6186;52.022;4.692;2023-04-07T08:42:23;101824.44;;;10.38;100.00
12247;BME280;6186;52.022;4.692;2023-04-07T08:44:52;101827.03;;;10.40;100.00
12247;BME280;6186;52.022;4.692;2023-04-07T08:47:18;101831.44;;;10.38;100.00
12247;BME280;6186;52.022;4.692;2023-04-07T08:49:47;101832.31;;;10.38;100.00
12247;BME280;6186;52.022;4.692;2023-04-07T08:52:17;101831.44;;;10.39;100.00
12247;BME280;6186;52.022;4.692;2023-04-07T08:54:46;101823.59;;;10.35;100.00
12247;BME280;6186;52.022;4.692;2023-04-07T08:57:12;101842.78;;;10.46;100.00
12247;BME280;6186;52.022;4.692;2023-04-07T08:59:40;101840.13;;;10.48;100.00
12247;BME280;6186;52.022;4.692;2023-04-07T09:02:05;101837.53;;;10.46;100.00
12247;BME280;6186;52.022;4.692;2023-04-07T09:04:30;101839.25;;;10.47;100.00
12247;BME280;6186;52.022;4.692;2023-04-07T09:06:56;101845.38;;;10.51;100.00
12247;BME280;6186;52.022;4.692;2023-04-07T09:09:21;101853.28;;;10.49;100.00
12247;BME280;6186;52.022;4.692;2023-04-07T09:11:47;101852.41;;;10.49;100.00
12247;BME280;6186;52.022;4.692;2023-04-07T09:14:12;101848.91;;;10.48;100.00
12247;BME280;6186;52.022;4.692;2023-04-07T09:16:37;101856.78;;;10.51;100.00
12247;BME280;6186;52.022;4.692;2023-04-07T09:19:03;101852.38;;;10.53;100.00
12247;BME280;6186;52.022;4.692;2023-04-07T09:24:26;101855.81;;;10.58;100.00
12247;BME280;6186;52.022;4.692;2023-04-07T09:27:15;101847.97;;;10.55;100.00
12247;BME280;6186;52.022;4.692;2023-04-07T09:29:42;101850.53;;;10.63;100.00
12247;BME280;6186;52.022;4.692;2023-04-07T09:32:08;101857.53;;;10.65;100.00
12247;BME280;6186;52.022;4.692;2023-04-07T09:34:36;101858.41;;;10.67;100.00
12247;BME280;6186;52.022;4.692;2023-04-07T09:37:02;101846.91;;;10.71;100.00
12247;BME280;6186;52.022;4.692;2023-04-07T09:39:28;101860.06;;;10.76;100.00
12247;BME280;6186;52.022;4.692;2023-04-07T09:41:54;101860.03;;;10.77;100.00
12247;BME280;6186;52.022;4.692;2023-04-07T09:44:20;101853.91;;;10.77;100.00
12247;BME280;6186;52.022;4.692;2023-04-07T09:46:57;101866.19;;;10.78;100.00
12247;BME280;6186;52.022;4.692;2023-04-07T09:49:24;101868.78;;;10.79;100.00
12247;BME280;6186;52.022;4.692;2023-04-07T09:52:03;101863.53;;;10.82;100.00
12247;BME280;6186;52.022;4.692;2023-04-07T09:54:33;101866.97;;;10.87;100.00
12247;BME280;6186;52.022;4.692;2023-04-07T09:57:00;101866.09;;;10.87;100.00
12247;BME280;6186;52.022;4.692;2023-04-07T09:59:26;101868.78;;;10.82;100.00
12247;BME280;6186;52.022;4.692;2023-04-07T10:01:53;101871.44;;;10.78;100.00
12247;BME280;6186;52.022;4.692;2023-04-07T10:04:19;101868.84;;;10.76;100.00
12247;BME280;6186;52.022;4.692;2023-04-07T10:06:45;101867.91;;;10.79;100.00
12247;BME280;6186;52.022;4.692;2023-04-07T10:09:11;101869.63;;;10.83;100.00
12247;BME280;6186;52.022;4.692;2023-04-07T10:11:36;101853.88;;;10.80;100.00
12247;BME280;6186;52.022;4.692;2023-04-07T10:14:02;101865.19;;;10.89;100.00
12247;BME280;6186;52.022;4.692;2023-04-07T10:16:29;101870.50;;;10.88;100.00
12247;BME280;6186;52.022;4.692;2023-04-07T10:18:54;101879.22;;;10.88;100.00
12247;BME280;6186;52.022;4.692;2023-04-07T10:21:20;101872.19;;;10.93;100.00
12247;BME280;6186;52.022;4.692;2023-04-07T10:23:52;101872.13;;;10.99;100.00
12247;BME280;6186;52.022;4.692;2023-04-07T10:26:23;101867.72;;;11.01;100.00
12247;BME280;6186;52.022;4.692;2023-04-07T10:28:59;101886.94;;;11.09;100.00
12247;BME280;6186;52.022;4.692;2023-04-07T10:31:26;101880.78;;;11.10;100.00
12247;BME280;6186;52.022;4.692;2023-04-07T10:33:52;101881.66;;;11.09;100.00
12247;BME280;6186;52.022;4.692;2023-04-07T10:36:19;101880.81;;;11.06;100.00
12247;BME280;6186;52.022;4.692;2023-04-07T10:41:38;101894.00;;;11.06;100.00
12247;BME280;6186;52.022;4.692;2023-04-07T10:44:05;101893.13;;;11.07;100.00
12247;BME280;6186;52.022;4.692;2023-04-07T10:49:12;101892.16;;;11.14;100.00
12247;BME280;6186;52.022;4.692;2023-04-07T10:51:38;101893.97;;;11.09;100.00
12247;BME280;6186;52.022;4.692;2023-04-07T10:54:22;101895.69;;;11.11;100.00
12247;BME280;6186;52.022;4.692;2023-04-07T10:59:31;101902.69;;;11.15;100.00
12247;BME280;6186;52.022;4.692;2023-04-07T11:04:38;101901.72;;;11.22;100.00
12247;BME280;6186;52.022;4.692;2023-04-07T11:07:04;101907.84;;;11.26;100.00
12247;BME280;6186;52.022;4.692;2023-04-07T11:09:29;101907.81;;;11.29;100.00
12247;BME280;6186;52.022;4.692;2023-04-07T11:11:54;101913.03;;;11.32;100.00
12247;BME280;6186;52.022;4.692;2023-04-07T11:14:26;101919.13;;;11.38;100.00
12247;BME280;6186;52.022;4.692;2023-04-07T11:16:53;101913.78;;;11.45;100.00
12247;BME280;6186;52.022;4.692;2023-04-07T11:19:19;101912.94;;;11.43;100.00
12247;BME280;6186;52.022;4.692;2023-04-07T11:21:44;101909.47;;;11.36;100.00
12247;BME280;6186;52.022;4.692;2023-04-07T11:24:10;101921.78;;;11.35;100.00
12247;BME280;6186;52.022;4.692;2023-04-07T11:26:39;101923.56;;;11.32;100.00
12247;BME280;6186;52.022;4.692;2023-04-07T11:29:05;101919.19;;;11.32;100.00
12247;BME280;6186;52.022;4.692;2023-04-07T11:31:30;101923.59;;;11.30;100.00
12247;BME280;6186;52.022;4.692;2023-04-07T11:33:58;101923.59;;;11.30;100.00
12247;BME280;6186;52.022;4.692;2023-04-07T11:36:39;101923.59;;;11.30;100.00
12247;BME280;6186;52.022;4.692;2023-04-07T11:39:19;101924.47;;;11.31;100.00
12247;BME280;6186;52.022;4.692;2023-04-07T11:41:46;101929.72;;;11.32;100.00
12247;BME280;6186;52.022;4.692;2023-04-07T11:44:12;101931.50;;;11.33;100.00
12247;BME280;6186;52.022;4.692;2023-04-07T11:46:57;101935.06;;;11.29;100.00
12247;BME280;6186;52.022;4.692;2023-04-07T11:49:23;101935.91;;;11.30;100.00
12247;BME280;6186;52.022;4.692;2023-04-07T11:51:57;101935.03;;;11.31;100.00
12247;BME280;6186;52.022;4.692;2023-04-07T11:54:23;101929.78;;;11.26;100.00
12247;BME280;6186;52.022;4.692;2023-04-07T11:56:48;101940.28;;;11.31;100.00
12247;BME280;6186;52.022;4.692;2023-04-07T11:59:21;101942.94;;;11.29;100.00
12247;BME280;6186;52.022;4.692;2023-04-07T12:01:47;101955.28;;;11.27;100.00
12247;BME280;6186;52.022;4.692;2023-04-07T12:04:13;101956.19;;;11.23;100.00
12247;BME280;6186;52.022;4.692;2023-04-07T12:06:38;101955.31;;;11.23;100.00
12247;BME280;6186;52.022;4.692;2023-04-07T12:09:04;101953.56;;;11.22;100.00
12247;BME280;6186;52.022;4.692;2023-04-07T12:11:30;101957.09;;;11.21;100.00
12247;BME280;6186;52.022;4.692;2023-04-07T12:13:56;101956.25;;;11.17;100.00
12247;BME280;6186;52.022;4.692;2023-04-07T12:16:21;101953.59;;;11.19;100.00
12247;BME280;6186;52.022;4.692;2023-04-07T12:18:47;101956.22;;;11.22;100.00
12247;BME280;6186;52.022;4.692;2023-04-07T12:21:12;101960.53;;;11.27;100.00
12247;BME280;6186;52.022;4.692;2023-04-07T12:23:37;101957.03;;;11.27;100.00
12247;BME280;6186;52.022;4.692;2023-04-07T12:26:03;101957.94;;;11.23;100.00
12247;BME280;6186;52.022;4.692;2023-04-07T12:28:28;101961.47;;;11.20;100.00
12247;BME280;6186;52.022;4.692;2023-04-07T12:30:54;101959.75;;;11.19;100.00
12247;BME280;6186;52.022;4.692;2023-04-07T12:33:19;101965.00;;;11.21;100.00
12247;BME280;6186;52.022;4.692;2023-04-07T12:35:44;101960.63;;;11.18;100.00
12247;BME280;6186;52.022;4.692;2023-04-07T12:38:09;101965.84;;;11.26;100.00
12247;BME280;6186;52.022;4.692;2023-04-07T12:40:35;101970.19;;;11.28;100.00
12247;BME280;6186;52.022;4.692;2023-04-07T12:43:00;101958.84;;;11.22;100.00
12247;BME280;6186;52.022;4.692;2023-04-07T12:45:26;101979.00;;;11.27;100.00
12247;BME280;6186;52.022;4.692;2023-04-07T12:47:51;101973.72;;;11.27;100.00
12247;BME280;6186;52.022;4.692;2023-04-07T12:50:16;101973.72;;;11.27;100.00
12247;BME280;6186;52.022;4.692;2023-04-07T12:52:42;101971.00;;;11.35;100.00
12247;BME280;6186;52.022;4.692;2023-04-07T12:55:07;101971.84;;;11.35;100.00
12247;BME280;6186;52.022;4.692;2023-04-07T12:57:32;101974.41;;;11.43;100.00
12247;BME280;6186;52.022;4.692;2023-04-07T12:59:58;101975.25;;;11.48;100.00
12247;BME280;6186;52.022;4.692;2023-04-07T13:02:23;101981.41;;;11.50;100.00
12247;BME280;6186;52.022;4.692;2023-04-07T13:04:48;101985.78;;;11.50;100.00
12247;BME280;6186;52.022;4.692;2023-04-07T13:07:13;101986.69;;;11.47;100.00
12247;BME280;6186;52.022;4.692;2023-04-07T13:09:39;101990.22;;;11.46;100.00
12247;BME280;6186;52.022;4.692;2023-04-07T13:12:05;101992.00;;;11.44;100.00